sensor_id;sensor_type;location;lat;lon;timestamp;pressure;altitude;pressure_sealevel;temperature;humidity
40372;BME280;28564;53.346;-6.554;2023-04-09T00:02:17;101173.75;;;12.77;38.66
40372;BME280;28564;53.346;-6.554;2023-04-09T00:04:44;101173.75;;;12.80;38.66
40372;BME280;28564;53.346;-6.554;2023-04-09T00:07:11;101177.49;;;12.83;38.67
40372;BME280;28564;53.346;-6.554;2023-04-09T00:09:39;101178.61;;;12.87;38.48
40372;BME280;28564;53.346;-6.554;2023-04-09T00:12:06;101179.69;;;12.92;38.29
40372;BME280;28564;53.346;-6.554;2023-04-09T00:14:33;101179.71;;;12.94;37.91
40372;BME280;28564;53.346;-6.554;2023-04-09T00:17:01;101180.34;;;12.75;37.54
40372;BME280;28564;53.346;-6.554;2023-04-09T00:19:28;101181.43;;;12.97;37.30
40372;BME280;28564;53.346;-6.554;2023-04-09T00:21:56;101179.92;;;12.97;37.05
40372;BME280;28564;53.346;-6.554;2023-04-09T00:24:28;101181.78;;;12.72;36.93
40372;BME280;28564;53.346;-6.554;2023-04-09T00:26:56;101181.80;;;12.73;36.91
40372;BME280;28564;53.346;-6.554;2023-04-09T00:29:23;101178.22;;;12.96;37.02
40372;BME280;28564;53.346;-6.554;2023-04-09T00:31:50;101175.75;;;12.98;36.90
40372;BME280;28564;53.346;-6.554;2023-04-09T00:34:18;101178.57;;;13.02;36.96
40372;BME280;28564;53.346;-6.554;2023-04-09T00:36:45;101170.78;;;13.05;37.16
40372;BME280;28564;53.346;-6.554;2023-04-09T00:39:12;101167.80;;;13.06;36.98
40372;BME280;28564;53.346;-6.554;2023-04-09T00:41:39;101163.12;;;13.05;37.24
40372;BME280;28564;53.346;-6.554;2023-04-09T00:44:07;101156.62;;;13.12;37.28
40372;BME280;28564;53.346;-6.554;2023-04-09T00:46:34;101148.94;;;13.12;37.51
40372;BME280;28564;53.346;-6.554;2023-04-09T00:49:01;101141.13;;;13.07;37.31
40372;BME280;28564;53.346;-6.554;2023-04-09T00:51:29;101146.58;;;13.01;37.16
40372;BME280;28564;53.346;-6.554;2023-04-09T00:53:56;101144.44;;;12.92;37.34
40372;BME280;28564;53.346;-6.554;2023-04-09T00:56:23;101142.00;;;12.84;37.58
40372;BME280;28564;53.346;-6.554;2023-04-09T00:58:50;101144.74;;;12.82;37.45
40372;BME280;28564;53.346;-6.554;2023-04-09T01:01:17;101136.25;;;12.81;37.41
40372;BME280;28564;53.346;-6.554;2023-04-09T01:03:45;101128.07;;;13.05;37.14
40372;BME280;28564;53.346;-6.554;2023-04-09T01:06:20;101130.20;;;12.74;37.20
40372;BME280;28564;53.346;-6.554;2023-04-09T01:08:57;101131.03;;;12.72;37.04
40372;BME280;28564;53.346;-6.554;2023-04-09T01:11:37;101128.69;;;12.54;36.94
40372;BME280;28564;53.346;-6.554;2023-04-09T01:14:13;101122.67;;;12.74;36.84
40372;BME280;28564;53.346;-6.554;2023-04-09T01:16:48;101112.57;;;12.72;36.78
40372;BME280;28564;53.346;-6.554;2023-04-09T01:19:33;101093.88;;;12.71;37.19
40372;BME280;28564;53.346;-6.554;2023-04-09T01:22:03;101086.46;;;12.70;37.81
40372;BME280;28564;53.346;-6.554;2023-04-09T01:24:41;101081.09;;;12.71;38.29
40372;BME280;28564;53.346;-6.554;2023-04-09T01:27:11;101080.49;;;12.65;38.70
40372;BME280;28564;53.346;-6.554;2023-04-09T01:29:44;101079.09;;;12.64;39.15
40372;BME280;28564;53.346;-6.554;2023-04-09T01:32:13;101083.70;;;12.58;39.46
40372;BME280;28564;53.346;-6.554;2023-04-09T01:34:44;101090.20;;;12.54;39.69
40372;BME280;28564;53.346;-6.554;2023-04-09T01:37:13;101083.26;;;12.77;39.90
40372;BME280;28564;53.346;-6.554;2023-04-09T01:39:41;101077.77;;;12.46;40.03
40372;BME280;28564;53.346;-6.554;2023-04-09T01:42:08;101076.63;;;12.37;40.17
40372;BME280;28564;53.346;-6.554;2023-04-09T01:44:37;101071.25;;;12.61;40.25
40372;BME280;28564;53.346;-6.554;2023-04-09T01:47:06;101064.47;;;12.35;40.25
40372;BME280;28564;53.346;-6.554;2023-04-09T01:49:35;101049.31;;;12.59;40.22
40372;BME280;28564;53.346;-6.554;2023-04-09T01:52:02;101044.81;;;12.31;40.32
40372;BME280;28564;53.346;-6.554;2023-04-09T01:54:30;101035.98;;;12.59;40.37
40372;BME280;28564;53.346;-6.554;2023-04-09T01:56:57;101028.30;;;12.26;40.42
40372;BME280;28564;53.346;-6.554;2023-04-09T01:59:25;101020.99;;;12.50;40.49
40372;BME280;28564;53.346;-6.554;2023-04-09T02:01:54;101017.56;;;12.66;40.57
40372;BME280;28564;53.346;-6.554;2023-04-09T02:04:29;101012.97;;;12.17;40.56
40372;BME280;28564;53.346;-6.554;2023-04-09T02:07:04;101014.86;;;12.65;40.52
40372;BME280;28564;53.346;-6.554;2023-04-09T02:09:34;101016.60;;;12.43;40.49
40372;BME280;28564;53.346;-6.554;2023-04-09T02:12:05;101013.15;;;12.20;40.50
40372;BME280;28564;53.346;-6.554;2023-04-09T02:14:33;101022.46;;;12.45;40.52
40372;BME280;28564;53.346;-6.554;2023-04-09T02:17:02;101018.29;;;12.19;40.52
40372;BME280;28564;53.346;-6.554;2023-04-09T02:19:38;101017.61;;;12.28;40.35
40372;BME280;28564;53.346;-6.554;2023-04-09T02:22:05;101017.07;;;12.26;40.38
40372;BME280;28564;53.346;-6.554;2023-04-09T02:24:32;101021.85;;;12.20;40.51
40372;BME280;28564;53.346;-6.554;2023-04-09T02:27:00;101016.51;;;12.21;40.56
40372;BME280;28564;53.346;-6.554;2023-04-09T02:29:27;101014.61;;;12.23;40.63
40372;BME280;28564;53.346;-6.554;2023-04-09T02:31:54;101012.77;;;12.23;40.72
40372;BME280;28564;53.346;-6.554;2023-04-09T02:34:22;101015.44;;;12.24;40.71
40372;BME280;28564;53.346;-6.554;2023-04-09T02:36:49;101011.91;;;12.22;40.80
40372;BME280;28564;53.346;-6.554;2023-04-09T02:39:16;101010.04;;;12.48;40.79
40372;BME280;28564;53.346;-6.554;2023-04-09T02:41:43;101010.57;;;12.72;40.82
40372;BME280;28564;53.346;-6.554;2023-04-09T02:44:10;101011.21;;;12.70;40.87
40372;BME280;28564;53.346;-6.554;2023-04-09T02:46:38;101008.65;;;12.27;40.82
40372;BME280;28564;53.346;-6.554;2023-04-09T02:49:06;101005.12;;;12.26;40.87
40372;BME280;28564;53.346;-6.554;2023-04-09T02:51:34;101002.25;;;12.78;40.83
40372;BME280;28564;53.346;-6.554;2023-04-09T02:54:02;100993.42;;;12.57;40.88
40372;BME280;28564;53.346;-6.554;2023-04-09T02:56:30;100990.40;;;12.28;40.97
40372;BME280;28564;53.346;-6.554;2023-04-09T02:58:57;100990.04;;;12.53;41.06
40372;BME280;28564;53.346;-6.554;2023-04-09T03:01:24;100986.19;;;12.21;41.14
40372;BME280;28564;53.346;-6.554;2023-04-09T03:03:51;100986.48;;;12.23;41.17
40372;BME280;28564;53.346;-6.554;2023-04-09T03:06:18;100982.12;;;12.49;41.21
40372;BME280;28564;53.346;-6.554;2023-04-09T03:08:45;100973.30;;;12.24;41.07
40372;BME280;28564;53.346;-6.554;2023-04-09T03:11:12;100971.18;;;12.20;41.15
40372;BME280;28564;53.346;-6.554;2023-04-09T03:13:40;100965.86;;;12.48;41.15
40372;BME280;28564;53.346;-6.554;2023-04-09T03:16:07;100957.82;;;12.19;41.26
40372;BME280;28564;53.346;-6.554;2023-04-09T03:18:34;100953.36;;;12.21;41.26
40372;BME280;28564;53.346;-6.554;2023-04-09T03:21:04;100946.35;;;12.27;41.16
40372;BME280;28564;53.346;-6.554;2023-04-09T03:23:32;100943.84;;;12.26;41.17
40372;BME280;28564;53.346;-6.554;2023-04-09T03:26:01;100937.13;;;12.28;41.14
40372;BME280;28564;53.346;-6.554;2023-04-09T03:28:29;100934.57;;;12.28;41.23
40372;BME280;28564;53.346;-6.554;2023-04-09T03:30:57;100933.74;;;12.54;41.19
40372;BME280;28564;53.346;-6.554;2023-04-09T03:33:24;100931.55;;;12.26;41.20
40372;BME280;28564;53.346;-6.554;2023-04-09T03:35:51;100927.86;;;12.49;41.34
40372;BME280;28564;53.346;-6.554;2023-04-09T03:38:18;100926.85;;;12.20;41.37
40372;BME280;28564;53.346;-6.554;2023-04-09T03:40:46;100923.54;;;12.47;41.47
40372;BME280;28564;53.346;-6.554;2023-04-09T03:43:13;100918.62;;;12.19;41.49
40372;BME280;28564;53.346;-6.554;2023-04-09T03:45:40;100916.03;;;12.42;41.56
40372;BME280;28564;53.346;-6.554;2023-04-09T03:48:07;100908.02;;;12.17;41.55
40372;BME280;28564;53.346;-6.554;2023-04-09T03:50:37;100904.35;;;12.19;41.54
40372;BME280;28564;53.346;-6.554;2023-04-09T03:53:05;100908.48;;;12.50;41.53
40372;BME280;28564;53.346;-6.554;2023-04-09T03:55:32;100903.28;;;12.55;41.54
40372;BME280;28564;53.346;-6.554;2023-04-09T03:58:00;100905.95;;;12.58;41.53
40372;BME280;28564;53.346;-6.554;2023-04-09T04:00:27;100901.06;;;12.52;41.62
40372;BME280;28564;53.346;-6.554;2023-04-09T04:02:54;100900.14;;;12.15;41.79
40372;BME280;28564;53.346;-6.554;2023-04-09T04:05:22;100890.06;;;12.33;41.95
40372;BME280;28564;53.346;-6.554;2023-04-09T04:07:50;100895.23;;;12.53;42.01
40372;BME280;28564;53.346;-6.554;2023-04-09T04:10:17;100889.37;;;12.51;42.07
40372;BME280;28564;53.346;-6.554;2023-04-09T04:12:44;100881.52;;;12.26;42.09
40372;BME280;28564;53.346;-6.554;2023-04-09T04:15:11;100879.35;;;12.46;42.10
40372;BME280;28564;53.346;-6.554;2023-04-09T04:17:38;100873.56;;;12.23;42.13
40372;BME280;28564;53.346;-6.554;2023-04-09T04:20:07;100859.31;;;12.42;42.20
40372;BME280;28564;53.346;-6.554;2023-04-09T04:22:35;100855.46;;;11.95;42.20
40372;BME280;28564;53.346;-6.554;2023-04-09T04:25:02;100853.97;;;12.42;42.24
40372;BME280;28564;53.346;-6.554;2023-04-09T04:27:29;100851.99;;;12.21;42.23
40372;BME280;28564;53.346;-6.554;2023-04-09T04:29:56;100848.91;;;12.23;42.27
40372;BME280;28564;53.346;-6.554;2023-04-09T04:32:23;100851.90;;;12.26;42.27
40372;BME280;28564;53.346;-6.554;2023-04-09T04:34:51;100856.92;;;12.30;42.34
40372;BME280;28564;53.346;-6.554;2023-04-09T04:37:18;100854.21;;;12.35;42.33
40372;BME280;28564;53.346;-6.554;2023-04-09T04:39:45;100842.48;;;12.54;42.40
40372;BME280;28564;53.346;-6.554;2023-04-09T04:42:13;100840.38;;;12.37;42.44
40372;BME280;28564;53.346;-6.554;2023-04-09T04:44:40;100833.60;;;12.62;42.46
40372;BME280;28564;53.346;-6.554;2023-04-09T04:47:07;100833.34;;;12.61;42.49
40372;BME280;28564;53.346;-6.554;2023-04-09T04:49:34;100827.27;;;12.14;42.55
40372;BME280;28564;53.346;-6.554;2023-04-09T04:52:01;100828.13;;;12.16;42.56
40372;BME280;28564;53.346;-6.554;2023-04-09T04:54:29;100831.09;;;12.14;42.64
40372;BME280;28564;53.346;-6.554;2023-04-09T04:56:56;100832.75;;;12.46;42.59
40372;BME280;28564;53.346;-6.554;2023-04-09T04:59:23;100828.72;;;12.70;42.63
40372;BME280;28564;53.346;-6.554;2023-04-09T05:01:50;100825.75;;;12.21;42.70
40372;BME280;28564;53.346;-6.554;2023-04-09T05:04:18;100821.56;;;12.64;42.88
40372;BME280;28564;53.346;-6.554;2023-04-09T05:06:45;100817.52;;;12.15;42.94
40372;BME280;28564;53.346;-6.554;2023-04-09T05:09:12;100804.33;;;12.37;43.00
40372;BME280;28564;53.346;-6.554;2023-04-09T05:11:39;100805.19;;;12.57;43.11
40372;BME280;28564;53.346;-6.554;2023-04-09T05:14:07;100804.64;;;12.11;43.09
40372;BME280;28564;53.346;-6.554;2023-04-09T05:16:34;100805.69;;;12.10;43.10
40372;BME280;28564;53.346;-6.554;2023-04-09T05:19:01;100807.35;;;12.33;43.19
40372;BME280;28564;53.346;-6.554;2023-04-09T05:21:28;100808.45;;;12.31;43.25
40372;BME280;28564;53.346;-6.554;2023-04-09T05:23:55;100809.70;;;12.35;43.29
40372;BME280;28564;53.346;-6.554;2023-04-09T05:26:23;100800.93;;;12.61;43.36
40372;BME280;28564;53.346;-6.554;2023-04-09T05:28:50;100803.16;;;12.51;43.45
40372;BME280;28564;53.346;-6.554;2023-04-09T05:31:17;100798.16;;;12.42;43.59
40372;BME280;28564;53.346;-6.554;2023-04-09T05:33:44;100802.13;;;12.20;43.66
40372;BME280;28564;53.346;-6.554;2023-04-09T05:36:15;100800.55;;;12.40;43.73
40372;BME280;28564;53.346;-6.554;2023-04-09T05:38:44;100800.45;;;11.89;43.77
40372;BME280;28564;53.346;-6.554;2023-04-09T05:41:11;100803.44;;;11.91;43.74
40372;BME280;28564;53.346;-6.554;2023-04-09T05:43:38;100803.99;;;11.87;43.83
40372;BME280;28564;53.346;-6.554;2023-04-09T05:46:06;100798.73;;;12.31;43.92
40372;BME280;28564;53.346;-6.554;2023-04-09T05:48:34;100795.59;;;12.14;43.92
40372;BME280;28564;53.346;-6.554;2023-04-09T05:51:01;100800.50;;;12.14;43.97
40372;BME280;28564;53.346;-6.554;2023-04-09T05:53:31;100799.34;;;12.12;44.04
40372;BME280;28564;53.346;-6.554;2023-04-09T05:55:58;100793.49;;;12.12;44.10
40372;BME280;28564;53.346;-6.554;2023-04-09T05:58:27;100792.64;;;11.85;44.15
40372;BME280;28564;53.346;-6.554;2023-04-09T06:00:54;100791.40;;;11.84;44.23
40372;BME280;28564;53.346;-6.554;2023-04-09T06:03:21;100796.01;;;11.85;44.25
40372;BME280;28564;53.346;-6.554;2023-04-09T06:05:49;100805.82;;;12.40;44.22
40372;BME280;28564;53.346;-6.554;2023-04-09T06:08:16;100803.08;;;11.99;44.18
40372;BME280;28564;53.346;-6.554;2023-04-09T06:10:43;100797.98;;;12.50;44.21
40372;BME280;28564;53.346;-6.554;2023-04-09T06:13:10;100795.17;;;12.03;44.24
40372;BME280;28564;53.346;-6.554;2023-04-09T06:15:38;100796.43;;;12.38;44.18
40372;BME280;28564;53.346;-6.554;2023-04-09T06:18:05;100798.78;;;12.19;44.10
40372;BME280;28564;53.346;-6.554;2023-04-09T06:20:33;100795.08;;;12.26;44.01
40372;BME280;28564;53.346;-6.554;2023-04-09T06:23:00;100798.44;;;12.55;44.02
40372;BME280;28564;53.346;-6.554;2023-04-09T06:25:27;100799.65;;;12.30;43.96
40372;BME280;28564;53.346;-6.554;2023-04-09T06:27:54;100800.50;;;12.61;44.01
40372;BME280;28564;53.346;-6.554;2023-04-09T06:30:22;100793.06;;;12.14;44.04
40372;BME280;28564;53.346;-6.554;2023-04-09T06:32:49;100792.78;;;12.41;43.95
40372;BME280;28564;53.346;-6.554;2023-04-09T06:35:16;100788.52;;;12.45;43.83
40372;BME280;28564;53.346;-6.554;2023-04-09T06:37:44;100785.65;;;12.48;43.70
40372;BME280;28564;53.346;-6.554;2023-04-09T06:40:13;100782.93;;;12.46;43.67
40372;BME280;28564;53.346;-6.554;2023-04-09T06:42:40;100776.17;;;12.48;43.53
40372;BME280;28564;53.346;-6.554;2023-04-09T06:45:08;100775.33;;;12.50;43.48
40372;BME280;28564;53.346;-6.554;2023-04-09T06:47:36;100773.45;;;12.57;43.04
40372;BME280;28564;53.346;-6.554;2023-04-09T06:50:04;100765.34;;;12.38;42.94
40372;BME280;28564;53.346;-6.554;2023-04-09T06:52:31;100754.50;;;12.66;42.92
40372;BME280;28564;53.346;-6.554;2023-04-09T06:54:58;100751.89;;;12.72;42.78
40372;BME280;28564;53.346;-6.554;2023-04-09T06:57:25;100740.68;;;12.74;42.66
40372;BME280;28564;53.346;-6.554;2023-04-09T06:59:53;100741.03;;;12.78;42.81
40372;BME280;28564;53.346;-6.554;2023-04-09T07:02:20;100735.01;;;12.66;42.61
40372;BME280;28564;53.346;-6.554;2023-04-09T07:04:47;100729.94;;;12.94;42.38
40372;BME280;28564;53.346;-6.554;2023-04-09T07:07:14;100718.95;;;12.97;42.04
40372;BME280;28564;53.346;-6.554;2023-04-09T07:09:42;100718.24;;;12.99;42.07
40372;BME280;28564;53.346;-6.554;2023-04-09T07:12:09;100710.76;;;13.02;42.32
40372;BME280;28564;53.346;-6.554;2023-04-09T07:14:36;100719.20;;;13.03;42.38
40372;BME280;28564;53.346;-6.554;2023-04-09T07:17:04;100714.72;;;13.07;42.31
40372;BME280;28564;53.346;-6.554;2023-04-09T07:19:31;100703.98;;;12.92;42.32
40372;BME280;28564;53.346;-6.554;2023-04-09T07:21:58;100696.69;;;12.98;41.96
40372;BME280;28564;53.346;-6.554;2023-04-09T07:24:25;100689.70;;;13.25;42.14
40372;BME280;28564;53.346;-6.554;2023-04-09T07:26:53;100682.77;;;13.35;42.00
40372;BME280;28564;53.346;-6.554;2023-04-09T07:29:20;100676.60;;;13.20;41.58
40372;BME280;28564;53.346;-6.554;2023-04-09T07:31:47;100676.60;;;13.53;41.18
40372;BME280;28564;53.346;-6.554;2023-04-09T07:34:14;100680.01;;;13.63;41.41
40372;BME280;28564;53.346;-6.554;2023-04-09T07:36:42;100666.08;;;13.43;41.53
40372;BME280;28564;53.346;-6.554;2023-04-09T07:39:09;100661.16;;;13.28;41.70
40372;BME280;28564;53.346;-6.554;2023-04-09T07:41:36;100669.97;;;13.56;41.83
40372;BME280;28564;53.346;-6.554;2023-04-09T07:44:03;100679.30;;;13.42;41.82
40372;BME280;28564;53.346;-6.554;2023-04-09T07:46:31;100675.84;;;13.52;41.67
40372;BME280;28564;53.346;-6.554;2023-04-09T07:48:58;100672.81;;;13.69;41.02
40372;BME280;28564;53.346;-6.554;2023-04-09T07:51:26;100673.57;;;13.86;40.33
40372;BME280;28564;53.346;-6.554;2023-04-09T07:53:53;100675.31;;;14.06;39.63
40372;BME280;28564;53.346;-6.554;2023-04-09T07:56:20;100671.26;;;14.24;39.28
40372;BME280;28564;53.346;-6.554;2023-04-09T07:58:47;100666.22;;;14.13;39.07
40372;BME280;28564;53.346;-6.554;2023-04-09T08:01:15;100673.37;;;14.05;38.83
40372;BME280;28564;53.346;-6.554;2023-04-09T08:03:42;100675.26;;;14.35;38.95
40372;BME280;28564;53.346;-6.554;2023-04-09T08:06:09;100674.91;;;14.21;39.02
40372;BME280;28564;53.346;-6.554;2023-04-09T08:08:36;100667.94;;;14.81;38.67
40372;BME280;28564;53.346;-6.554;2023-04-09T08:11:04;100654.51;;;14.37;38.66
40372;BME280;28564;53.346;-6.554;2023-04-09T08:13:31;100658.69;;;14.93;38.81
40372;BME280;28564;53.346;-6.554;2023-04-09T08:15:59;100657.92;;;14.81;38.43
40372;BME280;28564;53.346;-6.554;2023-04-09T08:18:27;100661.16;;;14.63;38.40
40372;BME280;28564;53.346;-6.554;2023-04-09T08:20:54;100668.41;;;14.72;38.27
40372;BME280;28564;53.346;-6.554;2023-04-09T08:23:21;100664.16;;;14.81;38.08
40372;BME280;28564;53.346;-6.554;2023-04-09T08:25:48;100666.30;;;14.92;37.98
40372;BME280;28564;53.346;-6.554;2023-04-09T08:28:15;100670.38;;;14.97;38.15
40372;BME280;28564;53.346;-6.554;2023-04-09T08:30:43;100676.62;;;15.08;38.02
40372;BME280;28564;53.346;-6.554;2023-04-09T08:33:10;100668.48;;;14.89;38.06
40372;BME280;28564;53.346;-6.554;2023-04-09T08:35:37;100677.73;;;15.23;38.07
40372;BME280;28564;53.346;-6.554;2023-04-09T08:38:04;100674.72;;;15.03;38.15
40372;BME280;28564;53.346;-6.554;2023-04-09T08:40:33;100676.72;;;15.40;38.10
40372;BME280;28564;53.346;-6.554;2023-04-09T08:43:04;100673.56;;;15.23;38.00
40372;BME280;28564;53.346;-6.554;2023-04-09T08:45:32;100676.66;;;15.31;38.09
40372;BME280;28564;53.346;-6.554;2023-04-09T08:48:01;100682.48;;;15.40;38.10
40372;BME280;28564;53.346;-6.554;2023-04-09T08:50:29;100677.96;;;15.48;38.05
40372;BME280;28564;53.346;-6.554;2023-04-09T08:52:57;100675.43;;;15.37;38.01
40372;BME280;28564;53.346;-6.554;2023-04-09T08:55:24;100662.65;;;15.69;37.78
40372;BME280;28564;53.346;-6.554;2023-04-09T08:57:51;100667.08;;;15.76;37.86
40372;BME280;28564;53.346;-6.554;2023-04-09T09:03:57;100653.71;;;15.72;37.34
40372;BME280;28564;53.346;-6.554;2023-04-09T09:06:26;100645.62;;;16.04;37.19
40372;BME280;28564;53.346;-6.554;2023-04-09T09:09:04;100655.14;;;16.28;37.07
40372;BME280;28564;53.346;-6.554;2023-04-09T09:11:32;100640.21;;;15.86;37.25
40372;BME280;28564;53.346;-6.554;2023-04-09T09:14:01;100644.34;;;16.17;37.29
40372;BME280;28564;53.346;-6.554;2023-04-09T09:16:29;100636.32;;;16.22;37.16
40372;BME280;28564;53.346;-6.554;2023-04-09T09:18:57;100638.24;;;16.09;36.77
40372;BME280;28564;53.346;-6.554;2023-04-09T09:21:24;100630.99;;;16.60;36.89
40372;BME280;28564;53.346;-6.554;2023-04-09T09:23:51;100634.17;;;16.48;37.00
40372;BME280;28564;53.346;-6.554;2023-04-09T09:26:20;100636.74;;;16.78;37.11
40372;BME280;28564;53.346;-6.554;2023-04-09T09:28:49;100636.79;;;16.67;36.74
40372;BME280;28564;53.346;-6.554;2023-04-09T09:31:18;100638.04;;;16.70;36.75
40372;BME280;28564;53.346;-6.554;2023-04-09T09:33:46;100632.95;;;16.69;37.04
40372;BME280;28564;53.346;-6.554;2023-04-09T09:36:14;100635.89;;;16.49;36.79
40372;BME280;28564;53.346;-6.554;2023-04-09T09:38:51;100630.32;;;16.76;36.73
40372;BME280;28564;53.346;-6.554;2023-04-09T09:41:19;100625.78;;;16.72;37.02
40372;BME280;28564;53.346;-6.554;2023-04-09T09:43:46;100631.82;;;16.53;37.03
40372;BME280;28564;53.346;-6.554;2023-04-09T09:46:15;100620.56;;;16.78;36.98
40372;BME280;28564;53.346;-6.554;2023-04-09T09:48:43;100623.14;;;16.69;37.12
40372;BME280;28564;53.346;-6.554;2023-04-09T09:51:11;100622.40;;;16.33;37.23
40372;BME280;28564;53.346;-6.554;2023-04-09T09:53:41;100615.90;;;16.51;37.60
40372;BME280;28564;53.346;-6.554;2023-04-09T09:56:13;100615.05;;;16.45;37.69
40372;BME280;28564;53.346;-6.554;2023-04-09T09:58:44;100605.83;;;16.17;37.82
40372;BME280;28564;53.346;-6.554;2023-04-09T10:01:13;100618.14;;;16.48;37.89
40372;BME280;28564;53.346;-6.554;2023-04-09T10:03:43;100612.57;;;16.28;37.62
40372;BME280;28564;53.346;-6.554;2023-04-09T10:06:12;100598.42;;;16.55;37.73
40372;BME280;28564;53.346;-6.554;2023-04-09T10:08:41;100594.40;;;16.57;37.75
40372;BME280;28564;53.346;-6.554;2023-04-09T10:11:08;100587.74;;;16.69;37.87
40372;BME280;28564;53.346;-6.554;2023-04-09T10:13:38;100583.48;;;16.44;38.09
40372;BME280;28564;53.346;-6.554;2023-04-09T10:16:06;100583.46;;;16.70;38.06
40372;BME280;28564;53.346;-6.554;2023-04-09T10:18:35;100579.33;;;16.46;38.05
40372;BME280;28564;53.346;-6.554;2023-04-09T10:21:13;100571.47;;;16.35;38.30
40372;BME280;28564;53.346;-6.554;2023-04-09T10:23:44;100571.67;;;16.29;38.39
40372;BME280;28564;53.346;-6.554;2023-04-09T10:26:13;100568.66;;;16.44;38.26
40372;BME280;28564;53.346;-6.554;2023-04-09T10:28:42;100555.24;;;16.38;38.36
40372;BME280;28564;53.346;-6.554;2023-04-09T10:31:10;100552.84;;;16.06;38.58
40372;BME280;28564;53.346;-6.554;2023-04-09T10:33:38;100553.33;;;16.24;38.54
40372;BME280;28564;53.346;-6.554;2023-04-09T10:36:09;100557.28;;;16.20;38.63
40372;BME280;28564;53.346;-6.554;2023-04-09T10:38:38;100548.33;;;16.13;38.90
40372;BME280;28564;53.346;-6.554;2023-04-09T10:41:08;100540.17;;;15.83;39.06
40372;BME280;28564;53.346;-6.554;2023-04-09T10:43:36;100542.45;;;16.05;39.26
40372;BME280;28564;53.346;-6.554;2023-04-09T10:46:04;100540.57;;;16.07;39.09
40372;BME280;28564;53.346;-6.554;2023-04-09T10:48:33;100529.72;;;16.26;39.34
40372;BME280;28564;53.346;-6.554;2023-04-09T10:51:05;100541.67;;;16.04;39.56
40372;BME280;28564;53.346;-6.554;2023-04-09T10:53:45;100528.28;;;16.05;39.53
40372;BME280;28564;53.346;-6.554;2023-04-09T10:56:14;100505.45;;;16.02;39.85
40372;BME280;28564;53.346;-6.554;2023-04-09T10:58:42;100515.14;;;16.10;39.86
40372;BME280;28564;53.346;-6.554;2023-04-09T11:01:08;100510.87;;;16.20;39.67
40372;BME280;28564;53.346;-6.554;2023-04-09T11:03:42;100516.05;;;16.32;39.57
40372;BME280;28564;53.346;-6.554;2023-04-09T11:06:10;100518.52;;;16.35;39.60
40372;BME280;28564;53.346;-6.554;2023-04-09T11:08:43;100520.73;;;16.38;39.31
40372;BME280;28564;53.346;-6.554;2023-04-09T11:11:10;100523.96;;;16.38;39.26
40372;BME280;28564;53.346;-6.554;2023-04-09T11:13:40;100518.42;;;16.33;39.40
40372;BME280;28564;53.346;-6.554;2023-04-09T11:16:07;100522.82;;;16.35;39.35
40372;BME280;28564;53.346;-6.554;2023-04-09T11:18:35;100520.06;;;16.15;38.47
40372;BME280;28564;53.346;-6.554;2023-04-09T11:21:03;100517.29;;;16.09;38.23
40372;BME280;28564;53.346;-6.554;2023-04-09T11:23:31;100512.05;;;16.20;38.53
40372;BME280;28564;53.346;-6.554;2023-04-09T11:25:58;100505.72;;;16.18;38.41
40372;BME280;28564;53.346;-6.554;2023-04-09T11:28:26;100508.47;;;16.18;38.33
40372;BME280;28564;53.346;-6.554;2023-04-09T11:30:53;100509.35;;;16.45;38.14
40372;BME280;28564;53.346;-6.554;2023-04-09T11:33:20;100506.98;;;16.26;38.09
40372;BME280;28564;53.346;-6.554;2023-04-09T11:35:48;100503.07;;;16.09;37.95
40372;BME280;28564;53.346;-6.554;2023-04-09T11:38:15;100489.81;;;16.30;38.05
40372;BME280;28564;53.346;-6.554;2023-04-09T11:40:43;100506.10;;;16.37;37.92
40372;BME280;28564;53.346;-6.554;2023-04-09T11:43:10;100505.17;;;16.38;37.93
40372;BME280;28564;53.346;-6.554;2023-04-09T11:45:37;100495.69;;;16.13;38.22
40372;BME280;28564;53.346;-6.554;2023-04-09T11:48:05;100491.74;;;16.38;38.43
40372;BME280;28564;53.346;-6.554;2023-04-09T11:50:32;100496.01;;;16.45;38.44
40372;BME280;28564;53.346;-6.554;2023-04-09T11:53:00;100496.17;;;16.50;38.26
40372;BME280;28564;53.346;-6.554;2023-04-09T11:55:28;100493.01;;;16.48;38.55
40372;BME280;28564;53.346;-6.554;2023-04-09T11:57:57;100495.29;;;16.33;38.68
40372;BME280;28564;53.346;-6.554;2023-04-09T12:00:25;100490.81;;;16.76;38.27
40372;BME280;28564;53.346;-6.554;2023-04-09T12:02:59;100490.32;;;16.61;38.20
40372;BME280;28564;53.346;-6.554;2023-04-09T12:05:28;100484.84;;;16.41;38.35
40372;BME280;28564;53.346;-6.554;2023-04-09T12:07:57;100479.72;;;16.92;38.40
40372;BME280;28564;53.346;-6.554;2023-04-09T12:10:27;100485.07;;;16.81;38.46
40372;BME280;28564;53.346;-6.554;2023-04-09T12:13:00;100481.30;;;16.85;38.62
40372;BME280;28564;53.346;-6.554;2023-04-09T12:15:31;100477.35;;;16.64;38.63
40372;BME280;28564;53.346;-6.554;2023-04-09T12:17:59;100477.99;;;16.59;38.71
40372;BME280;28564;53.346;-6.554;2023-04-09T12:20:30;100482.32;;;16.48;38.99
40372;BME280;28564;53.346;-6.554;2023-04-09T12:22:59;100476.14;;;16.69;39.03
40372;BME280;28564;53.346;-6.554;2023-04-09T12:25:27;100470.38;;;16.62;39.08
40372;BME280;28564;53.346;-6.554;2023-04-09T12:27:54;100460.30;;;16.73;39.33
40372;BME280;28564;53.346;-6.554;2023-04-09T12:30:22;100464.20;;;16.39;39.47
40372;BME280;28564;53.346;-6.554;2023-04-09T12:32:50;100463.06;;;16.53;39.65
40372;BME280;28564;53.346;-6.554;2023-04-09T12:35:18;100456.45;;;16.49;39.79
40372;BME280;28564;53.346;-6.554;2023-04-09T12:37:46;100456.68;;;16.31;39.98
40372;BME280;28564;53.346;-6.554;2023-04-09T12:40:13;100454.64;;;16.46;39.89
40372;BME280;28564;53.346;-6.554;2023-04-09T12:42:40;100452.30;;;16.73;39.94
40372;BME280;28564;53.346;-6.554;2023-04-09T12:45:09;100447.82;;;16.65;39.95
40372;BME280;28564;53.346;-6.554;2023-04-09T12:47:36;100446.78;;;16.85;40.34
40372;BME280;28564;53.346;-6.554;2023-04-09T12:50:04;100448.06;;;16.87;40.20